ARB weather

Ann Arbor Municipal Airport
Ann Arbor, Michigan, United States

Public forecast

Using degrees Fahrenheit for public forecast. Weather courtesy of forecast.io.

Current aviation weather report (METAR) for Ann Arbor Municipal Airport

Retrieved 2019/10/18 06:53 UTC (23 minutes ago):

KARB 180653Z AUTO 31003KT 10SM CLR M01/M01 A3001 RMK AO2 SLP168 T10061011

Closest aviation forecast (TAF) to Ann Arbor Municipal Airport

Closest forecast is Willow Run Airport, 9.6 nm (17.8 km) E. Retrieved 2019/10/18 06:22 UTC (54 minutes ago):

TAF KYIP 180520Z 1806/1906 33005KT P6SM SCT045 FM181700 16005KT P6SM SCT250